• Join FlightAware (Why Join?)
  • Login
  • US Flag 
10:42PM EDT


 

Airport Tracker/Info


-or-


 

Live Flight TrackerFlight Track Log ✈ N449ND ✈ 13-Feb-2014 ✈ KFPR - KVRB

Flight Track Log - Related Links

Times and Time Zones

All times are in EST time to prevent confusion due to time zone crossing. See the N449ND flight status page for this flight to view local times or setup timezone preferences in your user account.

Time Position Orientation Groundspeed Altitude Reporting Facility
EST Latitude Longitude Course Direction KTS MPH feet Rate Location/Type
02:26PM 27.4981 -80.3686 152° Southeast 101 116 500  Level Miami Center
02:27PM 27.4953 -80.3872 260° West 73 84 1,000 480 Climbing Miami Center
02:28PM 27.4950 -80.4036 269° West 62 71 1,500 960 Climbing Miami Center
02:29PM 27.4944 -80.4225 268° West 62 71 3,000 720 Climbing Miami Center
02:30PM 27.4922 -80.4342 258° West 62 71 3,000  Level Miami Center
02:31PM 27.4975 -80.3726 152° Southeast  Level Estimated
02:31PM 27.4836 -80.4386 205° Southwest 49 56 3,000  Level Miami Center
02:32PM 27.4617 -80.3981 121° Southeast 101 116 3,000  Level Miami Center
02:33PM 27.4439 -80.3647 121° Southeast 137 158 3,100  Climbing Miami Center
02:34PM 27.4217 -80.3289 125° Southeast 137 158 3,000 -120 Descending Miami Center
02:35PM 27.4058 -80.2958 118° Southeast 137 158 2,900  Descending Miami Center
02:36PM 27.3858 -80.2600 122° Southeast 137 158 3,000  Climbing Miami Center
02:37PM 27.3636 -80.2219 123° Southeast 137 158 3,000  Level Miami Center
02:38PM 27.3561 -80.1867 103° East 122 140 3,000 -180 Level Miami Center
02:39PM 27.3875 -80.1828 North 79 91 2,700 -360 Descending Miami Center
02:40PM 27.4169 -80.1719 18° North 109 125 2,300 -360 Descending Miami Center
02:41PM 27.4525 -80.1683 North 109 125 2,000 -300 Descending Miami Center
02:42PM 27.4583 -80.1919 286° West 71 82 1,800 -180 Descending Miami Center
02:43PM 27.4639 -80.2203 282° West 87 100 1,700 -120 Descending Miami Center
02:44PM 27.4697 -80.2414 287° West 87 100 1,600  Descending Miami Center
02:45PM 27.4775 -80.2650 290° West 82 94 1,700 -300 Climbing Miami Center
02:46PM 27.4831 -80.2911 283° West 77 89 1,100 -420 Descending Miami Center
02:47PM 27.4869 -80.3097 283° West 71 82 900 -300 Descending Miami Center
02:48PM 27.4928 -80.3286 289° West 71 82 500 -300 Descending Miami Center
02:49PM 27.4964 -80.3453 284° West 71 82 400 1,200 Descending Miami Center
02:50PM 27.4919 -80.3614 253° West 65 75 3,000 600 Climbing Miami Center
02:51PM 27.4728 -80.3750 212° Southwest 71 82 1,700 480 Descending Miami Center
02:52PM 27.4581 -80.3814 201° Southwest 81 93 4,000 540 Climbing Miami Center
02:53PM 27.4369 -80.3903 200° South 96 110 2,800 -300 Descending Miami Center
02:54PM 27.4225 -80.3803 148° Southeast 74 85 3,500 600 Climbing Miami Center
02:55PM 27.4397 -80.3553 52° Northeast 64 74 4,000 240 Climbing Miami Center
02:56PM 27.4594 -80.3183 59° Northeast 106 122 4,000 -120 Level Miami Center
02:57PM 27.4792 -80.2814 59° Northeast 122 140 3,800 -420 Descending Miami Center
02:58PM 27.5028 -80.2589 40° Northeast 128 147 3,200 -420 Descending Miami Center
02:59PM 27.5303 -80.2408 30° Northeast 120 138 3,000 -180 Descending Miami Center
03:00PM 27.5600 -80.2206 31° Northeast 114 131 2,900  Descending Miami Center
03:01PM 27.5828 -80.2261 348° North 88 101 3,000 -360 Climbing Miami Center
03:02PM 27.5947 -80.2497 300° West 74 85 2,200 -600 Descending Miami Center
03:03PM 27.6025 -80.2711 292° West 91 105 1,900 -240 Descending Miami Center
03:04PM 27.6125 -80.2972 293° West 91 105 1,800 -240 Descending Miami Center
03:05PM 27.6222 -80.3233 293° West 86 99 1,500 -540 Descending Miami Center
03:06PM 27.6300 -80.3447 292° West 81 93 800 -540 Descending Miami Center
03:07PM 27.6358 -80.3636 289° West 81 93 500 -300 Descending Miami Center